createdAt,value
2023-02-19T00:01:31.155Z,6.13
2023-02-19T00:04:14.459Z,5.88
2023-02-19T00:06:41.826Z,5.70
2023-02-19T00:09:11.685Z,5.93
2023-02-19T00:11:39.008Z,5.95
2023-02-19T00:14:06.168Z,6.13
2023-02-19T00:16:38.740Z,6.78
2023-02-19T00:19:08.404Z,7.60
2023-02-19T00:21:35.564Z,6.50
2023-02-19T00:24:05.124Z,6.20
2023-02-19T00:26:33.009Z,7.28
2023-02-19T00:29:00.979Z,5.85
2023-02-19T00:31:33.189Z,7.38
2023-02-19T00:34:05.924Z,6.53
2023-02-19T00:36:36.097Z,6.70
2023-02-19T00:39:04.515Z,6.45
2023-02-19T00:41:31.227Z,6.82
2023-02-19T00:44:03.819Z,6.85
2023-02-19T00:46:33.714Z,6.25
2023-02-19T00:49:01.004Z,6.45
2023-02-19T00:51:30.482Z,5.85
2023-02-19T00:53:57.413Z,6.63
2023-02-19T00:58:51.472Z,6.30
2023-02-19T01:03:46.750Z,6.03
2023-02-19T01:06:15.738Z,6.07
2023-02-19T01:08:42.788Z,6.40
2023-02-19T01:16:06.729Z,6.15
2023-02-19T01:18:34.284Z,5.03
2023-02-19T01:21:09.277Z,4.82
2023-02-19T01:23:37.034Z,4.90
2023-02-19T01:26:09.037Z,5.30
2023-02-19T01:28:36.075Z,5.40
2023-02-19T01:31:08.671Z,6.05
2023-02-19T01:33:35.622Z,4.85
2023-02-19T01:36:07.220Z,4.75
2023-02-19T01:38:34.206Z,5.43
2023-02-19T01:41:06.516Z,5.80
2023-02-19T01:43:35.015Z,5.07
2023-02-19T01:46:02.498Z,4.95
2023-02-19T01:48:37.638Z,4.88
2023-02-19T01:51:10.487Z,3.90
2023-02-19T01:53:41.652Z,4.82
2023-02-19T01:56:09.538Z,4.80
2023-02-19T01:58:38.045Z,5.28
2023-02-19T02:01:07.509Z,4.60
2023-02-19T02:03:36.720Z,4.93
2023-02-19T02:06:23.378Z,3.95
2023-02-19T02:09:15.619Z,4.35
2023-02-19T02:11:47.436Z,4.28
2023-02-19T02:14:18.386Z,4.85
2023-02-19T02:17:00.768Z,5.05
2023-02-19T02:19:59.639Z,4.60
2023-02-19T02:22:36.632Z,4.22
2023-02-19T02:25:17.648Z,4.40
2023-02-19T02:28:21.059Z,5.15
2023-02-19T02:31:03.121Z,4.68
2023-02-19T02:33:54.816Z,3.92
2023-02-19T02:36:39.488Z,3.95
2023-02-19T02:39:13.034Z,4.60
2023-02-19T02:42:10.670Z,4.35
2023-02-19T02:44:42.722Z,4.20
2023-02-19T02:47:31.233Z,4.82
2023-02-19T02:50:05.959Z,5.38
2023-02-19T02:52:57.743Z,4.10
2023-02-19T02:55:26.093Z,4.78
2023-02-19T02:57:55.902Z,4.28
2023-02-19T03:00:26.185Z,4.32
2023-02-19T03:02:58.145Z,4.13
2023-02-19T03:05:50.909Z,4.55
2023-02-19T03:08:31.511Z,4.55
2023-02-19T03:11:29.881Z,4.45
2023-02-19T03:14:41.377Z,3.73
2023-02-19T03:17:45.628Z,4.75
2023-02-19T03:20:17.133Z,3.85
2023-02-19T03:22:45.946Z,3.60
2023-02-19T03:25:37.107Z,3.80
2023-02-19T03:28:08.825Z,3.90
2023-02-19T03:30:52.957Z,3.58
2023-02-19T03:33:26.413Z,3.63
2023-02-19T03:35:58.217Z,3.28
2023-02-19T03:38:34.332Z,3.00
2023-02-19T03:41:30.009Z,3.60
2023-02-19T03:44:12.967Z,3.08
2023-02-19T03:46:42.659Z,2.80
2023-02-19T03:49:24.028Z,2.65
2023-02-19T03:52:05.378Z,2.58
2023-02-19T03:54:41.135Z,2.90
2023-02-19T03:57:23.339Z,3.15
2023-02-19T03:59:59.570Z,2.72
2023-02-19T04:02:34.647Z,2.42
2023-02-19T04:05:17.922Z,2.63
2023-02-19T04:07:49.651Z,2.35
2023-02-19T04:10:21.514Z,2.22
2023-02-19T04:13:07.747Z,2.50
2023-02-19T04:15:36.476Z,2.17
2023-02-19T04:18:09.187Z,2.45
2023-02-19T04:20:43.966Z,2.50
2023-02-19T04:23:12.657Z,2.15
2023-02-19T04:25:43.248Z,2.40
2023-02-19T04:28:10.127Z,2.50
2023-02-19T04:30:37.015Z,2.58
2023-02-19T04:33:03.941Z,2.97
2023-02-19T04:35:30.913Z,2.35
2023-02-19T04:40:24.533Z,2.28
2023-02-19T04:42:51.395Z,2.10
2023-02-19T04:45:18.202Z,2.40
2023-02-19T04:47:45.087Z,2.95
2023-02-19T04:50:11.777Z,2.15
2023-02-19T04:52:39.322Z,2.30
2023-02-19T04:55:07.105Z,2.28
2023-02-19T04:57:34.433Z,2.20
2023-02-19T05:00:01.420Z,2.42
2023-02-19T05:04:54.805Z,1.70
2023-02-19T05:07:21.571Z,2.17
2023-02-19T05:09:48.245Z,1.90
2023-02-19T05:12:14.932Z,1.60
2023-02-19T05:14:41.609Z,2.03
2023-02-19T05:17:08.389Z,1.38
2023-02-19T05:19:35.121Z,1.67
2023-02-19T05:22:01.824Z,1.92
2023-02-19T05:24:29.857Z,1.85
2023-02-19T05:26:56.526Z,1.92
2023-02-19T05:29:23.400Z,1.98
2023-02-19T05:31:50.163Z,2.00
2023-02-19T05:34:16.998Z,2.58
2023-02-19T05:36:43.759Z,2.03
2023-02-19T05:39:12.296Z,2.25
2023-02-19T05:41:39.407Z,1.77
2023-02-19T05:44:06.174Z,2.05
2023-02-19T05:46:33.323Z,1.85
2023-02-19T05:49:00.126Z,2.25
2023-02-19T05:51:27.326Z,1.90
2023-02-19T05:53:55.159Z,2.00
2023-02-19T05:56:27.856Z,1.88
2023-02-19T05:58:54.996Z,1.45
2023-02-19T06:01:24.438Z,1.55
2023-02-19T06:03:51.551Z,1.40
2023-02-19T06:06:19.316Z,1.75
2023-02-19T06:08:47.708Z,1.50
2023-02-19T06:11:14.468Z,1.48
2023-02-19T06:13:41.212Z,1.35
2023-02-19T06:16:08.700Z,1.40
2023-02-19T06:18:35.679Z,1.33
2023-02-19T06:23:30.806Z,1.05
2023-02-19T06:26:19.317Z,1.90
2023-02-19T06:28:47.558Z,1.13
2023-02-19T06:31:15.494Z,1.00
2023-02-19T06:33:42.781Z,0.70
2023-02-19T06:36:16.243Z,0.90
2023-02-19T06:38:43.305Z,0.77
2023-02-19T06:41:10.752Z,0.77
2023-02-19T06:43:37.780Z,0.65
2023-02-19T06:48:33.192Z,0.73
2023-02-19T06:51:00.303Z,0.65
2023-02-19T06:53:27.614Z,0.88
2023-02-19T06:56:03.632Z,0.70
2023-02-19T06:58:30.935Z,0.77
2023-02-19T07:00:58.109Z,0.85
2023-02-19T07:03:26.196Z,0.80
2023-02-19T07:05:53.580Z,0.85
2023-02-19T07:08:20.615Z,0.70
2023-02-19T07:10:56.342Z,0.70
2023-02-19T07:13:24.389Z,1.15
2023-02-19T07:15:52.191Z,0.90
2023-02-19T07:18:19.284Z,0.85
2023-02-19T07:23:12.826Z,0.65
2023-02-19T07:25:39.879Z,0.88
2023-02-19T07:28:07.104Z,0.90
2023-02-19T07:30:34.444Z,0.70
2023-02-19T07:33:01.338Z,0.98
2023-02-19T07:35:28.311Z,0.70
2023-02-19T07:40:21.730Z,0.65
2023-02-19T07:42:48.591Z,1.33
2023-02-19T07:45:16.978Z,1.15
2023-02-19T07:50:12.405Z,0.80
2023-02-19T07:52:40.501Z,0.60
2023-02-19T07:55:07.420Z,1.52
2023-02-19T08:00:00.968Z,1.17
2023-02-19T08:05:36.713Z,1.05
2023-02-19T08:08:06.764Z,0.90
2023-02-19T08:10:51.887Z,0.80
2023-02-19T08:13:27.876Z,1.05
2023-02-19T08:16:01.724Z,1.25
2023-02-19T08:18:34.422Z,1.10
2023-02-19T08:23:28.841Z,0.90
2023-02-19T08:26:01.419Z,1.27
2023-02-19T08:28:29.368Z,0.95
2023-02-19T08:31:00.895Z,1.42
2023-02-19T08:33:28.014Z,1.05
2023-02-19T08:35:55.330Z,1.45
2023-02-19T08:38:22.506Z,0.82
2023-02-19T08:40:49.246Z,1.25
2023-02-19T08:43:17.113Z,1.23
2023-02-19T08:45:45.665Z,1.38
2023-02-19T08:48:12.832Z,1.30
2023-02-19T08:50:40.902Z,1.65
2023-02-19T08:55:34.486Z,1.23
2023-02-19T08:58:01.241Z,1.27
2023-02-19T09:00:28.023Z,2.00
2023-02-19T09:02:54.730Z,1.65
2023-02-19T09:05:21.415Z,2.08
2023-02-19T09:07:48.385Z,1.73
2023-02-19T09:12:42.072Z,1.40
2023-02-19T09:17:35.755Z,1.67
2023-02-19T09:20:02.543Z,1.60
2023-02-19T09:22:29.298Z,1.20
2023-02-19T09:24:56.014Z,1.23
2023-02-19T09:27:22.705Z,1.48
2023-02-19T09:29:49.412Z,1.45
2023-02-19T09:32:18.735Z,1.90
2023-02-19T09:34:45.872Z,1.40
2023-02-19T09:37:12.592Z,1.10
2023-02-19T09:39:39.493Z,1.00
2023-02-19T09:44:42.101Z,1.02
2023-02-19T09:47:31.284Z,1.10
2023-02-19T09:50:09.458Z,1.55
2023-02-19T09:52:49.234Z,1.15
2023-02-19T09:55:42.800Z,1.05
2023-02-19T09:58:33.358Z,1.23
2023-02-19T10:01:03.098Z,1.35
2023-02-19T10:03:39.187Z,1.77
2023-02-19T10:06:23.784Z,1.40
2023-02-19T10:08:54.073Z,1.85
2023-02-19T10:11:22.280Z,1.33
2023-02-19T10:14:01.662Z,1.83
2023-02-19T10:16:28.797Z,2.35
2023-02-19T10:18:56.526Z,1.35
2023-02-19T10:21:28.069Z,1.17
2023-02-19T10:24:02.718Z,2.05
2023-02-19T10:26:42.531Z,1.50
2023-02-19T10:29:11.094Z,1.40
2023-02-19T10:31:37.974Z,2.45
2023-02-19T10:34:06.582Z,1.38
2023-02-19T10:36:39.960Z,1.80
2023-02-19T10:39:42.263Z,1.35
2023-02-19T10:42:23.403Z,1.67
2023-02-19T10:44:58.839Z,1.55
2023-02-19T10:47:27.952Z,2.25
2023-02-19T10:49:58.719Z,2.20
2023-02-19T10:52:35.355Z,2.35
2023-02-19T10:55:25.781Z,2.47
2023-02-19T10:57:52.633Z,2.40
2023-02-19T11:00:27.865Z,2.85
2023-02-19T11:03:18.374Z,2.47
2023-02-19T11:05:56.049Z,2.10
2023-02-19T11:08:24.549Z,1.50
2023-02-19T11:10:51.700Z,2.22
2023-02-19T11:13:37.874Z,1.60
2023-02-19T11:16:05.558Z,1.90
2023-02-19T11:18:33.338Z,1.88
2023-02-19T11:21:01.454Z,1.98
2023-02-19T11:23:36.051Z,2.08
2023-02-19T11:26:15.931Z,2.03
2023-02-19T11:28:44.043Z,1.60
2023-02-19T11:31:22.715Z,2.10
2023-02-19T11:34:04.176Z,1.50
2023-02-19T11:36:32.605Z,1.58
2023-02-19T11:39:20.031Z,1.50
2023-02-19T11:42:05.537Z,1.80
2023-02-19T11:44:55.196Z,2.00
2023-02-19T11:47:58.945Z,1.92
2023-02-19T11:50:50.112Z,2.53
2023-02-19T11:53:22.502Z,2.40
2023-02-19T11:56:11.864Z,1.50
2023-02-19T11:58:48.393Z,2.20
2023-02-19T12:01:30.238Z,2.40
2023-02-19T12:04:36.880Z,2.03
2023-02-19T12:07:42.196Z,1.73
2023-02-19T12:10:36.632Z,1.98
2023-02-19T12:13:26.643Z,2.15
2023-02-19T12:16:18.042Z,2.10
2023-02-19T12:19:11.834Z,1.95
2023-02-19T12:22:00.380Z,2.55
2023-02-19T12:24:27.118Z,3.55
2023-02-19T12:27:12.680Z,2.30
2023-02-19T12:29:57.003Z,1.92
2023-02-19T12:32:42.499Z,2.22
2023-02-19T12:35:24.816Z,1.60
2023-02-19T12:38:04.645Z,2.00
2023-02-19T12:41:11.758Z,1.50
2023-02-19T12:43:41.812Z,1.35
2023-02-19T12:46:31.199Z,2.17
2023-02-19T12:49:06.894Z,1.70
2023-02-19T12:51:43.125Z,2.20
2023-02-19T12:54:24.889Z,2.00
2023-02-19T12:57:15.634Z,1.80
2023-02-19T12:59:50.594Z,2.05
2023-02-19T13:02:45.387Z,1.98
2023-02-19T13:05:18.103Z,1.67
2023-02-19T13:07:53.944Z,2.03
2023-02-19T13:10:31.012Z,2.22
2023-02-19T13:13:04.569Z,1.95
2023-02-19T13:15:45.321Z,1.60
2023-02-19T13:18:28.924Z,2.03
2023-02-19T13:20:56.657Z,1.40
2023-02-19T13:24:09.128Z,1.60
2023-02-19T13:26:50.923Z,2.03
2023-02-19T13:29:39.031Z,1.83
2023-02-19T13:32:24.600Z,1.98
2023-02-19T13:35:18.974Z,1.63
2023-02-19T13:37:46.613Z,1.70
2023-02-19T13:40:22.662Z,1.45
2023-02-19T13:42:58.529Z,1.90
2023-02-19T13:45:46.375Z,1.70
2023-02-19T13:48:25.683Z,1.77
2023-02-19T13:51:17.377Z,1.90
2023-02-19T13:53:48.149Z,1.15
2023-02-19T13:56:30.295Z,1.60
2023-02-19T13:59:17.876Z,1.60
2023-02-19T14:01:53.610Z,1.55
2023-02-19T14:04:26.093Z,1.73
2023-02-19T14:07:05.048Z,1.70
2023-02-19T14:09:34.483Z,2.53
2023-02-19T14:12:13.728Z,2.67
2023-02-19T14:14:55.291Z,2.85
2023-02-19T14:17:35.427Z,2.03
2023-02-19T14:20:17.608Z,2.58
2023-02-19T14:22:52.063Z,2.28
2023-02-19T14:25:28.308Z,2.72
2023-02-19T14:28:01.333Z,2.10
2023-02-19T14:30:29.225Z,2.80
2023-02-19T14:33:09.646Z,3.28
2023-02-19T14:35:44.306Z,2.80
2023-02-19T14:38:23.237Z,2.90
2023-02-19T14:40:50.634Z,3.28
2023-02-19T14:43:20.575Z,2.58
2023-02-19T14:45:57.043Z,2.45
2023-02-19T14:48:46.164Z,2.38
2023-02-19T14:51:33.497Z,2.22
2023-02-19T14:54:09.246Z,1.47
2023-02-19T14:56:36.852Z,1.33
2023-02-19T14:59:15.621Z,1.70
2023-02-19T15:01:42.432Z,2.33
2023-02-19T15:04:24.485Z,1.85
2023-02-19T15:06:53.146Z,2.50
2023-02-19T15:09:21.823Z,1.88
2023-02-19T15:11:49.025Z,2.40
2023-02-19T15:14:24.294Z,4.80
2023-02-19T15:16:57.783Z,2.53
2023-02-19T15:19:24.668Z,1.63
2023-02-19T15:24:19.655Z,2.65
2023-02-19T15:26:54.048Z,1.95
2023-02-19T15:29:24.241Z,1.60
2023-02-19T15:31:54.336Z,1.30
2023-02-19T15:34:26.834Z,1.60
2023-02-19T15:37:14.236Z,2.03
2023-02-19T15:39:45.045Z,2.00
2023-02-19T15:42:21.033Z,2.25
2023-02-19T15:44:51.627Z,2.70
2023-02-19T15:47:18.334Z,2.22
2023-02-19T15:49:58.646Z,1.38
2023-02-19T15:52:41.586Z,1.33
2023-02-19T15:55:23.567Z,1.58
2023-02-19T15:58:23.408Z,1.30
2023-02-19T16:01:04.626Z,1.58
2023-02-19T16:03:32.729Z,1.27
2023-02-19T16:06:11.259Z,1.40
2023-02-19T16:08:39.820Z,1.75
2023-02-19T16:11:27.677Z,1.17
2023-02-19T16:14:34.040Z,1.40
2023-02-19T16:17:09.828Z,2.72
2023-02-19T16:19:50.494Z,2.90
2023-02-19T16:22:20.283Z,2.50
2023-02-19T16:24:56.671Z,1.73
2023-02-19T16:27:37.329Z,1.92
2023-02-19T16:30:08.337Z,1.38
2023-02-19T16:32:35.846Z,1.77
2023-02-19T16:35:03.257Z,1.10
2023-02-19T16:37:41.052Z,1.33
2023-02-19T16:40:07.955Z,1.42
2023-02-19T16:42:35.509Z,1.60
2023-02-19T16:45:02.589Z,1.27
2023-02-19T16:47:40.497Z,1.15
2023-02-19T16:50:14.987Z,1.83
2023-02-19T16:52:57.493Z,1.25
2023-02-19T16:55:28.205Z,1.38
2023-02-19T16:57:56.771Z,2.20
2023-02-19T17:00:31.535Z,2.05
2023-02-19T17:03:25.505Z,2.63
2023-02-19T17:05:56.599Z,1.63
2023-02-19T17:08:37.390Z,2.38
2023-02-19T17:11:12.602Z,2.05
2023-02-19T17:13:40.771Z,2.35
2023-02-19T17:16:08.538Z,2.00
2023-02-19T17:18:35.614Z,2.55
2023-02-19T17:21:16.399Z,2.30
2023-02-19T17:23:43.426Z,2.53
2023-02-19T17:28:49.129Z,3.15
2023-02-19T17:31:17.173Z,3.33
2023-02-19T17:33:46.015Z,4.28
2023-02-19T17:36:30.220Z,3.65
2023-02-19T17:38:58.820Z,4.40
2023-02-19T17:41:26.508Z,3.33
2023-02-19T17:43:57.320Z,3.58
2023-02-19T17:46:27.453Z,3.35
2023-02-19T17:48:57.423Z,3.45
2023-02-19T17:51:28.321Z,2.90
2023-02-19T17:54:01.415Z,4.25
2023-02-19T17:56:33.335Z,3.17
2023-02-19T17:59:00.751Z,5.35
2023-02-19T18:01:30.674Z,6.20
2023-02-19T18:03:58.434Z,5.25
2023-02-19T18:06:27.458Z,5.82
2023-02-19T18:08:54.394Z,6.03
2023-02-19T18:11:22.985Z,6.20
2023-02-19T18:13:51.513Z,6.65
2023-02-19T18:16:19.861Z,6.88
2023-02-19T18:18:46.866Z,9.70
2023-02-19T18:23:43.798Z,8.68
2023-02-19T18:26:11.201Z,6.88
2023-02-19T18:28:38.826Z,4.93
2023-02-19T18:31:05.970Z,5.82
2023-02-19T18:33:35.303Z,4.70
2023-02-19T18:36:04.227Z,3.70
2023-02-19T18:38:31.047Z,2.40
2023-02-19T18:40:58.861Z,2.22
2023-02-19T18:43:26.459Z,2.75
2023-02-19T18:45:53.654Z,2.92
2023-02-19T18:48:20.458Z,2.42
2023-02-19T18:50:47.506Z,2.03
2023-02-19T18:55:41.168Z,3.28
2023-02-19T18:58:07.967Z,9.60
2023-02-19T19:00:34.758Z,6.97
2023-02-19T19:03:01.698Z,9.43
2023-02-19T19:07:59.056Z,13.00
2023-02-19T19:10:26.418Z,10.65
2023-02-19T19:12:54.667Z,5.85
2023-02-19T19:15:22.808Z,4.97
2023-02-19T19:17:50.588Z,3.60
2023-02-19T19:20:19.620Z,2.75
2023-02-19T19:22:49.395Z,3.20
2023-02-19T19:25:16.364Z,3.22
2023-02-19T19:30:10.245Z,2.38
2023-02-19T19:32:37.853Z,2.58
2023-02-19T19:35:04.794Z,2.97
2023-02-19T19:39:58.345Z,2.85
2023-02-19T19:42:25.486Z,2.53
2023-02-19T19:44:52.856Z,2.55
2023-02-19T19:47:19.665Z,3.20
2023-02-19T19:49:47.362Z,2.95
2023-02-19T19:52:15.126Z,2.80
2023-02-19T19:54:43.068Z,2.70
2023-02-19T19:57:10.341Z,2.55
2023-02-19T19:59:39.186Z,2.70
2023-02-19T20:02:08.091Z,3.20
2023-02-19T20:04:35.074Z,3.00
2023-02-19T20:09:29.008Z,3.88
2023-02-19T20:11:56.635Z,4.15
2023-02-19T20:14:25.207Z,2.97
2023-02-19T20:16:52.653Z,3.53
2023-02-19T20:19:20.327Z,3.55
2023-02-19T20:21:49.290Z,3.75
2023-02-19T20:24:23.912Z,3.85
2023-02-19T20:26:53.058Z,4.72
2023-02-19T20:29:19.751Z,3.60
2023-02-19T20:31:50.878Z,4.20
2023-02-19T20:34:18.514Z,3.53
2023-02-19T20:36:47.206Z,3.97
2023-02-19T20:39:19.269Z,4.63
2023-02-19T20:41:51.188Z,4.43
2023-02-19T20:44:19.207Z,4.55
2023-02-19T20:46:48.061Z,5.28
2023-02-19T20:49:16.426Z,4.50
2023-02-19T20:51:48.252Z,4.65
2023-02-19T20:54:17.275Z,4.30
2023-02-19T20:56:45.447Z,4.95
2023-02-19T20:59:13.488Z,5.25
2023-02-19T21:01:40.492Z,5.78
2023-02-19T21:04:07.470Z,5.55
2023-02-19T21:09:01.053Z,4.32
2023-02-19T21:11:27.902Z,5.07
2023-02-19T21:13:58.953Z,5.10
2023-02-19T21:16:27.848Z,4.63
2023-02-19T21:18:54.603Z,4.82
2023-02-19T21:21:25.190Z,5.60
2023-02-19T21:23:56.471Z,4.57
2023-02-19T21:26:24.059Z,5.53
2023-02-19T21:28:54.211Z,5.28
2023-02-19T21:31:22.836Z,5.55
2023-02-19T21:33:51.261Z,4.82
2023-02-19T21:36:18.735Z,5.05
2023-02-19T21:38:45.877Z,5.57
2023-02-19T21:41:12.616Z,6.07
2023-02-19T21:43:39.316Z,4.57
2023-02-19T21:46:06.131Z,5.20
2023-02-19T21:48:32.895Z,5.90
2023-02-19T21:50:59.683Z,5.68
2023-02-19T21:53:26.384Z,5.38
2023-02-19T21:55:58.571Z,6.10
2023-02-19T21:58:37.405Z,5.18
2023-02-19T22:01:04.244Z,4.95
2023-02-19T22:03:31.292Z,4.80
2023-02-19T22:08:27.882Z,5.75
2023-02-19T22:10:54.657Z,7.13
2023-02-19T22:13:21.519Z,4.80
2023-02-19T22:15:48.285Z,4.82
2023-02-19T22:18:14.941Z,4.40
2023-02-19T22:20:41.649Z,4.97
2023-02-19T22:23:08.397Z,4.93
2023-02-19T22:25:35.123Z,4.82
2023-02-19T22:28:04.478Z,5.20
2023-02-19T22:30:31.341Z,5.38
2023-02-19T22:35:25.412Z,5.70
2023-02-19T22:37:52.096Z,6.30
2023-02-19T22:40:19.024Z,5.38
2023-02-19T22:42:45.725Z,5.35
2023-02-19T22:45:13.234Z,5.38
2023-02-19T22:47:40.274Z,5.55
2023-02-19T22:52:33.990Z,6.13
2023-02-19T22:55:00.698Z,4.90
2023-02-19T22:57:28.607Z,5.45
2023-02-19T22:59:55.434Z,5.93
2023-02-19T23:02:22.135Z,6.07
2023-02-19T23:04:48.873Z,6.68
2023-02-19T23:07:15.554Z,5.50
2023-02-19T23:09:42.278Z,5.82
2023-02-19T23:12:12.570Z,5.95
2023-02-19T23:14:39.442Z,5.93
2023-02-19T23:17:06.631Z,7.55
2023-02-19T23:19:33.646Z,6.38
2023-02-19T23:22:00.655Z,5.80
2023-02-19T23:24:27.388Z,5.80
2023-02-19T23:26:54.549Z,6.22
2023-02-19T23:29:25.300Z,6.00
2023-02-19T23:31:54.422Z,6.85
2023-02-19T23:34:21.790Z,6.00
2023-02-19T23:36:50.248Z,6.30
2023-02-19T23:39:19.904Z,7.05
2023-02-19T23:41:52.067Z,6.68
2023-02-19T23:44:19.358Z,6.10
2023-02-19T23:46:46.262Z,6.10
2023-02-19T23:49:13.313Z,7.15
2023-02-19T23:54:07.345Z,7.00
2023-02-19T23:56:34.568Z,6.82
2023-02-19T23:59:01.366Z,6.65
